Time;durP1;ratioP1;P1;durP2;ratioP2;P2;SDS_P1;SDS_P2;PMS_P1;PMS_P2;Temp;Humidity;BMP_temperature;BMP_pressure;BME280_temperature;BME280_humidity;BME280_pressure;Samples;Min_cycle;Max_cycle;Signal;HPM_P1;HPM_P2
2021/08/01 05:01:24;;;;;;;31.80;27.20;;;;;;;;;;5535779;23;20236;-73
2021/08/01 05:04:10;;;;;;;29.50;25.90;;;;;;;;;;4895466;29;20211;-74
2021/08/01 05:06:56;;;;;;;34.22;30.13;;;;;;;;;;4894484;29;20429;-73
2021/08/01 05:09:41;;;;;;;30.47;25.70;;;;;;;;;;4895566;29;20287;-74
2021/08/01 05:12:26;;;;;;;28.77;25.67;;;;;;;;;;4895471;29;20234;-73
2021/08/01 05:15:12;;;;;;;30.80;27.30;;;;;;;;;;4915197;23;20258;-73
2021/08/01 05:17:58;;;;;;;29.60;24.97;;;;;;;;;;4894451;29;20234;-71
2021/08/01 05:20:43;;;;;;;35.70;27.60;;;;;;;;;;4895371;29;20231;-73
2021/08/01 05:23:28;;;;;;;36.57;27.83;;;;;;;;;;4895402;29;20234;-71
2021/08/01 05:26:13;;;;;;;39.63;30.90;;;;;;;;;;4894559;29;20238;-72
2021/08/01 05:28:58;;;;;;;42.83;35.20;;;;;;;;;;4894760;29;20421;-73
2021/08/01 05:31:42;;;;;;;38.80;30.97;;;;;;;;;;4896521;29;20451;-71
2021/08/01 05:34:31;;;;;;;43.57;33.13;;;;;;;;;;4898544;29;20226;-73
2021/08/01 05:37:15;;;;;;;44.37;33.37;;;;;;;;;;4897568;29;20259;-72
2021/08/01 05:40:00;;;;;;;43.60;33.93;;;;;;;;;;4898469;29;20203;-71
2021/08/01 05:42:45;;;;;;;44.20;32.43;;;;;;;;;;4898605;29;20574;-71
2021/08/01 05:45:30;;;;;;;47.57;34.30;;;;;;;;;;4898400;29;20237;-73
2021/08/01 05:48:15;;;;;;;45.80;34.90;;;;;;;;;;4898040;29;20210;-71
2021/08/01 05:51:05;;;;;;;50.73;38.27;;;;;;;;;;4898369;29;20219;-73
2021/08/01 05:53:50;;;;;;;47.90;37.00;;;;;;;;;;4898192;29;20210;-71
2021/08/01 05:56:35;;;;;;;44.83;37.67;;;;;;;;;;4897814;29;20214;-71
2021/08/01 05:59:20;;;;;;;50.10;38.90;;;;;;;;;;4898033;29;20230;-73
2021/08/01 06:02:05;;;;;;;56.27;41.73;;;;;;;;;;4898117;29;20348;-73
2021/08/01 06:04:50;;;;;;;50.73;40.13;;;;;;;;;;4898006;29;20829;-71
2021/08/01 06:07:36;;;;;;;54.63;41.57;;;;;;;;;;4897393;29;20695;-73
2021/08/01 06:10:21;;;;;;;59.95;50.67;;;;;;;;;;4898585;29;20510;-71
2021/08/01 06:13:06;;;;;;;57.67;43.63;;;;;;;;;;4897996;29;20210;-71
2021/08/01 06:15:51;;;;;;;58.83;44.10;;;;;;;;;;4897248;29;20329;-70
2021/08/01 06:18:36;;;;;;;53.40;42.07;;;;;;;;;;4898030;29;20258;-71
2021/08/01 06:21:21;;;;;;;55.33;42.50;;;;;;;;;;4898345;29;20270;-71
2021/08/01 06:24:07;;;;;;;49.97;39.73;;;;;;;;;;4897937;29;20214;-71
2021/08/01 06:26:52;;;;;;;58.50;41.83;;;;;;;;;;4897645;29;20211;-70
2021/08/01 06:29:37;;;;;;;52.73;41.03;;;;;;;;;;4897867;29;20577;-71
2021/08/01 06:32:22;;;;;;;65.53;50.47;;;;;;;;;;4896561;29;20786;-71
2021/08/01 06:35:07;;;;;;;58.40;42.97;;;;;;;;;;4897972;29;20351;-73
2021/08/01 06:37:52;;;;;;;57.17;43.00;;;;;;;;;;4897048;29;20246;-70
2021/08/01 06:40:39;;;;;;;57.57;40.37;;;;;;;;;;4897612;29;20210;-71
2021/08/01 06:43:24;;;;;;;55.27;40.07;;;;;;;;;;4897499;29;20667;-71
2021/08/01 06:46:09;;;;;;;56.93;38.07;;;;;;;;;;4896719;29;20815;-71
2021/08/01 06:48:54;;;;;;;53.60;39.33;;;;;;;;;;4897364;29;20210;-71
2021/08/01 06:51:39;;;;;;;61.93;40.07;;;;;;;;;;4897494;29;20207;-71
2021/08/01 06:54:24;;;;;;;56.03;40.57;;;;;;;;;;4897362;29;20242;-71
2021/08/01 06:57:10;;;;;;;60.37;39.57;;;;;;;;;;4896669;29;20222;-71
2021/08/01 06:59:55;;;;;;;53.57;38.87;;;;;;;;;;4896981;29;20238;-70
2021/08/01 07:02:40;;;;;;;55.93;39.70;;;;;;;;;;4897270;29;20611;-71
2021/08/01 07:05:26;;;;;;;60.17;40.40;;;;;;;;;;4896676;29;20331;-71
2021/08/01 07:08:11;;;;;;;61.77;40.83;;;;;;;;;;4897172;29;20235;-70
2021/08/01 07:10:56;;;;;;;57.67;40.10;;;;;;;;;;4896919;29;20210;-71
2021/08/01 07:13:42;;;;;;;58.77;40.07;;;;;;;;;;4897380;29;20207;-71
2021/08/01 07:16:27;;;;;;;57.00;41.17;;;;;;;;;;4895851;29;20263;-71
2021/08/01 07:19:12;;;;;;;58.67;40.73;;;;;;;;;;4896521;29;20235;-71
2021/08/01 07:21:57;;;;;;;54.67;40.30;;;;;;;;;;4896622;29;20261;-71
2021/08/01 07:24:42;;;;;;;52.00;39.77;;;;;;;;;;4896601;29;20226;-71
2021/08/01 07:27:27;;;;;;;52.63;39.57;;;;;;;;;;4896023;29;20492;-71
2021/08/01 07:30:14;;;;;;;55.10;39.77;;;;;;;;;;4896778;29;20283;-71
2021/08/01 07:32:59;;;;;;;52.47;39.70;;;;;;;;;;4896741;29;20743;-70
2021/08/01 07:35:45;;;;;;;58.60;47.05;;;;;;;;;;4895139;29;20417;-71
2021/08/01 07:38:30;;;;;;;56.50;41.80;;;;;;;;;;4896532;29;20278;-71
2021/08/01 07:41:15;;;;;;;57.93;41.73;;;;;;;;;;4896976;29;20624;-72
2021/08/01 07:43:59;;;;;;;55.23;40.57;;;;;;;;;;4896623;29;20219;-71
2021/08/01 07:46:46;;;;;;;62.17;43.57;;;;;;;;;;4895502;29;20227;-71
2021/08/01 07:49:30;;;;;;;54.23;41.03;;;;;;;;;;4895884;29;20207;-71
2021/08/01 07:52:16;;;;;;;56.70;40.93;;;;;;;;;;4896350;29;20209;-70
2021/08/01 07:55:01;;;;;;;52.87;39.17;;;;;;;;;;4895736;29;20234;-71
2021/08/01 07:57:46;;;;;;;54.47;42.00;;;;;;;;;;4895240;29;20595;-70
2021/08/01 08:00:31;;;;;;;51.77;40.57;;;;;;;;;;4895776;29;20634;-71
2021/08/01 08:03:17;;;;;;;52.97;41.10;;;;;;;;;;4896182;29;20210;-71
2021/08/01 08:06:05;;;;;;;54.07;40.57;;;;;;;;;;4894875;29;20241;-70
2021/08/01 08:08:50;;;;;;;48.33;40.53;;;;;;;;;;4895885;29;20234;-71
2021/08/01 08:11:35;;;;;;;54.27;41.23;;;;;;;;;;4895859;29;20727;-71
2021/08/01 08:14:20;;;;;;;50.30;42.33;;;;;;;;;;4895754;29;20343;-71
2021/08/01 08:17:06;;;;;;;59.28;49.40;;;;;;;;;;4893849;29;20418;-71
2021/08/01 08:19:52;;;;;;;48.87;41.03;;;;;;;;;;4895633;29;20237;-71
2021/08/01 08:22:38;;;;;;;51.47;41.67;;;;;;;;;;4895834;29;20230;-71
2021/08/01 08:25:23;;;;;;;48.20;39.77;;;;;;;;;;4895647;29;20310;-71
2021/08/01 08:28:08;;;;;;;49.63;39.53;;;;;;;;;;4895181;29;20214;-71
2021/08/01 08:30:53;;;;;;;47.27;39.37;;;;;;;;;;4895580;29;20703;-71
2021/08/01 08:33:38;;;;;;;44.80;37.47;;;;;;;;;;4895350;29;20265;-72
2021/08/01 08:36:24;;;;;;;48.27;38.97;;;;;;;;;;4895045;29;20629;-72
2021/08/01 08:39:09;;;;;;;46.38;41.17;;;;;;;;;;4894246;29;20583;-72
2021/08/01 08:41:56;;;;;;;41.97;37.37;;;;;;;;;;4895642;29;20214;-71
2021/08/01 08:44:43;;;;;;;43.13;37.17;;;;;;;;;;4895198;29;20297;-71
2021/08/01 08:47:28;;;;;;;44.40;37.63;;;;;;;;;;4894948;29;20211;-71
2021/08/01 08:50:14;;;;;;;44.27;39.03;;;;;;;;;;4895700;29;20215;-72
2021/08/01 08:53:03;;;;;;;47.10;39.67;;;;;;;;;;4895627;29;20207;-71
2021/08/01 08:55:48;;;;;;;49.87;38.93;;;;;;;;;;4894363;29;20284;-70
2021/08/01 08:58:34;;;;;;;46.93;39.27;;;;;;;;;;4895458;29;20273;-71
2021/08/01 09:01:19;;;;;;;47.23;39.20;;;;;;;;;;4895447;29;20207;-72
2021/08/01 09:04:04;;;;;;;42.10;37.07;;;;;;;;;;4895305;29;20688;-71
2021/08/01 09:06:49;;;;;;;39.77;35.47;;;;;;;;;;4895659;29;20805;-71
2021/08/01 09:09:36;;;;;;;47.23;37.10;;;;;;;;;;4899364;29;20206;-71
2021/08/01 09:12:21;;;;;;;39.60;34.47;;;;;;;;;;4900443;29;20351;-71
2021/08/01 09:15:13;;;;;;;36.77;32.87;;;;;;;;;;4899185;29;20234;-71
2021/08/01 09:17:59;;;;;;;40.70;36.37;;;;;;;;;;4897987;29;20425;-71
2021/08/01 09:20:49;;;;;;;40.57;34.03;;;;;;;;;;4899423;29;20426;-72
2021/08/01 09:23:35;;;;;;;37.63;33.57;;;;;;;;;;4898788;29;20211;-71
2021/08/01 09:26:21;;;;;;;38.03;32.67;;;;;;;;;;4899187;29;20229;-72
2021/08/01 09:29:06;;;;;;;35.77;31.83;;;;;;;;;;4898706;29;20304;-72
2021/08/01 09:31:58;;;;;;;36.57;32.77;;;;;;;;;;4898702;29;20319;-72
2021/08/01 09:34:45;;;;;;;37.73;33.07;;;;;;;;;;4898584;29;20763;-72
2021/08/01 09:37:34;;;;;;;35.53;31.07;;;;;;;;;;4897900;29;20206;-72
2021/08/01 09:40:19;;;;;;;38.60;34.70;;;;;;;;;;4897743;29;20444;-72
2021/08/01 09:43:09;;;;;;;38.73;33.23;;;;;;;;;;4898658;29;20318;-72
2021/08/01 09:45:58;;;;;;;38.40;34.17;;;;;;;;;;4897851;29;20319;-72
2021/08/01 09:48:43;;;;;;;38.97;33.47;;;;;;;;;;4898796;29;20644;-72
2021/08/01 09:51:28;;;;;;;42.03;33.80;;;;;;;;;;4898344;29;20210;-72
2021/08/01 09:54:14;;;;;;;36.40;32.53;;;;;;;;;;4898141;29;20606;-72
2021/08/01 09:57:00;;;;;;;35.83;31.90;;;;;;;;;;4897384;29;20213;-72
2021/08/01 09:59:47;;;;;;;35.80;32.07;;;;;;;;;;4897989;29;20311;-72
2021/08/01 10:02:36;;;;;;;34.53;29.90;;;;;;;;;;4898333;29;20212;-72
2021/08/01 10:05:22;;;;;;;34.90;31.37;;;;;;;;;;4898069;29;20298;-72
2021/08/01 10:08:07;;;;;;;33.70;30.30;;;;;;;;;;4897599;29;20213;-72
2021/08/01 10:11:07;;;;;;;34.23;30.40;;;;;;;;;;4897974;29;20210;-72
2021/08/01 10:13:53;;;;;;;31.63;28.20;;;;;;;;;;4897605;29;20239;-72
2021/08/01 10:16:39;;;;;;;30.97;27.70;;;;;;;;;;4897302;29;20593;-72
2021/08/01 10:19:24;;;;;;;34.03;29.57;;;;;;;;;;4897501;29;20223;-72
2021/08/01 10:22:11;;;;;;;33.53;29.50;;;;;;;;;;4897894;29;20356;-72
2021/08/01 10:25:00;;;;;;;43.83;34.87;;;;;;;;;;4897743;29;20241;-72
2021/08/01 10:27:48;;;;;;;45.13;36.60;;;;;;;;;;4896929;29;20216;-72
2021/08/01 10:30:43;;;;;;;52.20;38.23;;;;;;;;;;4898131;29;20231;-73
2021/08/01 10:33:33;;;;;;;46.30;36.03;;;;;;;;;;4899245;29;20211;-72
2021/08/01 10:36:22;;;;;;;44.97;36.00;;;;;;;;;;4897987;29;20214;-73
2021/08/01 10:39:16;;;;;;;44.23;34.37;;;;;;;;;;4898880;29;20247;-73
2021/08/01 10:42:07;;;;;;;42.38;35.03;;;;;;;;;;4898765;29;20828;-73
2021/08/01 10:44:53;;;;;;;37.43;33.07;;;;;;;;;;4898678;29;20227;-73
2021/08/01 10:47:45;;;;;;;38.67;32.60;;;;;;;;;;4898150;29;20193;-73
2021/08/01 10:50:32;;;;;;;33.57;28.10;;;;;;;;;;4898853;29;20208;-73
2021/08/01 10:53:27;;;;;;;19.60;17.50;;;;;;;;;;4898514;29;20218;-73
2021/08/01 10:56:32;;;;;;;9.43;8.03;;;;;;;;;;4897597;29;20233;-73
2021/08/01 10:59:32;;;;;;;5.00;4.70;;;;;;;;;;4897928;29;20369;-73
2021/08/01 11:02:23;;;;;;;4.10;3.90;;;;;;;;;;4898086;29;20211;-73
2021/08/01 11:05:26;;;;;;;4.30;4.10;;;;;;;;;;4893104;29;20342;-72
2021/08/01 11:08:13;;;;;;;3.13;3.03;;;;;;;;;;4891632;29;20221;-73
2021/08/01 11:11:14;;;;;;;2.83;2.73;;;;;;;;;;4894165;29;20235;-71
2021/08/01 11:13:59;;;;;;;3.57;3.27;;;;;;;;;;4892078;29;20216;-71
2021/08/01 11:16:48;;;;;;;3.80;3.60;;;;;;;;;;4908450;23;20276;-73
2021/08/01 11:19:34;;;;;;;3.80;3.50;;;;;;;;;;4894733;29;20232;-74
2021/08/01 11:22:46;;;;;;;4.60;4.30;;;;;;;;;;4891897;29;20222;-75
2021/08/01 11:25:34;;;;;;;5.20;4.80;;;;;;;;;;4885299;29;20334;-74
2021/08/01 11:28:21;;;;;;;4.47;4.23;;;;;;;;;;4887057;29;20217;-73
2021/08/01 11:31:07;;;;;;;5.90;5.47;;;;;;;;;;4876366;29;20202;-75
2021/08/01 11:33:54;;;;;;;7.47;6.87;;;;;;;;;;4892861;29;20227;-75
2021/08/01 11:36:38;;;;;;;7.33;6.70;;;;;;;;;;4889284;29;20238;-74
2021/08/01 11:39:24;;;;;;;10.80;9.80;;;;;;;;;;4894863;29;20234;-76
2021/08/01 11:42:21;;;;;;;8.37;7.73;;;;;;;;;;4894620;29;20210;-75
2021/08/01 11:45:12;;;;;;;10.98;10.02;;;;;;;;;;4886677;29;20807;-75
2021/08/01 11:47:58;;;;;;;14.10;12.77;;;;;;;;;;4892733;29;20751;-75
2021/08/01 11:50:43;;;;;;;11.50;10.40;;;;;;;;;;4890962;29;20585;-75
2021/08/01 11:53:29;;;;;;;8.23;7.53;;;;;;;;;;4894270;29;20238;-75
2021/08/01 11:56:14;;;;;;;8.40;7.70;;;;;;;;;;4890238;29;20230;-75
2021/08/01 11:59:00;;;;;;;9.33;8.33;;;;;;;;;;4892516;29;20687;-75
2021/08/01 12:01:46;;;;;;;8.03;7.23;;;;;;;;;;4893659;29;20274;-74
2021/08/01 12:04:31;;;;;;;7.80;7.20;;;;;;;;;;4875833;29;20696;-74
2021/08/01 12:07:16;;;;;;;7.20;6.60;;;;;;;;;;4870831;29;20336;-74
2021/08/01 12:10:12;;;;;;;6.47;5.97;;;;;;;;;;4878739;29;20211;-74
2021/08/01 12:12:59;;;;;;;6.03;5.63;;;;;;;;;;4874361;29;20211;-75
2021/08/01 12:15:45;;;;;;;5.90;5.50;;;;;;;;;;4881679;29;20246;-75
2021/08/01 12:18:30;;;;;;;7.97;7.37;;;;;;;;;;4873006;29;20222;-74
2021/08/01 12:21:28;;;;;;;5.43;5.10;;;;;;;;;;4879179;29;20226;-73
2021/08/01 12:24:27;;;;;;;5.10;4.80;;;;;;;;;;4888797;29;20929;-73
2021/08/01 12:27:13;;;;;;;5.60;5.20;;;;;;;;;;4872644;29;20307;-75
2021/08/01 12:30:01;;;;;;;5.50;5.10;;;;;;;;;;4872092;29;20260;-74
2021/08/01 12:32:48;;;;;;;6.93;6.37;;;;;;;;;;4872136;29;20218;-73
2021/08/01 12:35:39;;;;;;;6.77;6.27;;;;;;;;;;4875411;29;20612;-75
2021/08/01 12:38:24;;;;;;;6.33;5.93;;;;;;;;;;4870429;29;20219;-74
2021/08/01 12:41:11;;;;;;;5.40;5.00;;;;;;;;;;4887067;29;20225;-74
2021/08/01 12:43:56;;;;;;;5.67;5.27;;;;;;;;;;4896771;29;20217;-73
2021/08/01 12:46:41;;;;;;;5.30;4.90;;;;;;;;;;4895757;29;20492;-73
2021/08/01 12:49:28;;;;;;;5.67;5.27;;;;;;;;;;4879393;29;20258;-74
2021/08/01 12:52:17;;;;;;;6.17;5.67;;;;;;;;;;4879422;29;20215;-75
2021/08/01 12:55:02;;;;;;;6.60;6.10;;;;;;;;;;4885748;29;20251;-74
2021/08/01 12:58:05;;;;;;;7.20;6.60;;;;;;;;;;4886524;29;20585;-74
2021/08/01 13:01:00;;;;;;;6.60;6.10;;;;;;;;;;4896408;29;20386;-74
2021/08/01 13:03:46;;;;;;;7.10;6.60;;;;;;;;;;4879101;29;20748;-73
2021/08/01 13:06:32;;;;;;;7.10;6.60;;;;;;;;;;4891993;29;20779;-75
2021/08/01 13:09:19;;;;;;;7.23;6.73;;;;;;;;;;4884656;29;20211;-75
2021/08/01 13:12:11;;;;;;;9.23;8.53;;;;;;;;;;4884073;29;20215;-76
2021/08/01 13:14:56;;;;;;;7.00;6.40;;;;;;;;;;4897310;29;20879;-75
2021/08/01 13:17:41;;;;;;;6.60;6.17;;;;;;;;;;4879023;29;20219;-76
2021/08/01 13:20:34;;;;;;;6.87;6.47;;;;;;;;;;4890014;29;20815;-75
2021/08/01 13:23:35;;;;;;;6.00;5.57;;;;;;;;;;4896334;29;20299;-75
2021/08/01 13:26:21;;;;;;;5.43;5.03;;;;;;;;;;4892351;29;20251;-75
2021/08/01 13:29:07;;;;;;;4.33;4.03;;;;;;;;;;4893920;29;20699;-76
2021/08/01 13:31:52;;;;;;;5.20;4.80;;;;;;;;;;4896867;29;20219;-76
2021/08/01 13:34:38;;;;;;;4.90;4.60;;;;;;;;;;4896997;29;20215;-75
2021/08/01 13:37:26;;;;;;;4.63;4.33;;;;;;;;;;4894832;29;20367;-75
2021/08/01 13:40:12;;;;;;;5.40;5.00;;;;;;;;;;4887949;29;20234;-75
2021/08/01 13:42:58;;;;;;;4.87;4.57;;;;;;;;;;4896714;29;20227;-75
2021/08/01 13:45:43;;;;;;;5.13;4.83;;;;;;;;;;4895531;29;20241;-76
2021/08/01 13:48:28;;;;;;;5.20;4.90;;;;;;;;;;4894703;29;20520;-75
2021/08/01 13:51:13;;;;;;;5.07;4.77;;;;;;;;;;4894124;29;20526;-75
2021/08/01 13:53:58;;;;;;;5.07;4.77;;;;;;;;;;4879325;29;20593;-74
2021/08/01 13:56:45;;;;;;;5.77;5.37;;;;;;;;;;4882437;29;20243;-76
2021/08/01 13:59:30;;;;;;;5.60;5.20;;;;;;;;;;4882677;29;20227;-75
2021/08/01 14:02:15;;;;;;;5.83;5.37;;;;;;;;;;4877347;29;20215;-75
2021/08/01 14:05:00;;;;;;;5.00;4.70;;;;;;;;;;4879276;29;20319;-74
2021/08/01 14:07:44;;;;;;;6.17;5.60;;;;;;;;;;4875285;29;20236;-75
2021/08/01 14:10:30;;;;;;;6.87;6.37;;;;;;;;;;4873847;29;20830;-76
2021/08/01 14:13:16;;;;;;;5.50;5.10;;;;;;;;;;4867381;29;20260;-76
2021/08/01 14:16:01;;;;;;;5.17;4.70;;;;;;;;;;4869221;29;20398;-76
2021/08/01 14:18:46;;;;;;;5.47;5.03;;;;;;;;;;4871264;29;20675;-75
2021/08/01 14:21:31;;;;;;;5.93;5.63;;;;;;;;;;4878812;29;20450;-76
2021/08/01 14:24:16;;;;;;;6.20;5.70;;;;;;;;;;4871230;29;20222;-75
2021/08/01 14:27:01;;;;;;;5.17;4.87;;;;;;;;;;4878629;29;20300;-75
2021/08/01 14:29:48;;;;;;;8.03;7.37;;;;;;;;;;4879209;29;20226;-76
2021/08/01 14:32:33;;;;;;;6.80;6.20;;;;;;;;;;4878763;29;20589;-75
2021/08/01 14:35:20;;;;;;;6.10;5.70;;;;;;;;;;4878767;29;20327;-74
2021/08/01 14:38:06;;;;;;;5.77;5.33;;;;;;;;;;4878621;29;20218;-75
2021/08/01 14:40:51;;;;;;;6.03;5.60;;;;;;;;;;4878753;29;20272;-75
2021/08/01 14:43:36;;;;;;;6.30;5.90;;;;;;;;;;4878548;29;20214;-75
2021/08/01 14:46:24;;;;;;;6.60;6.00;;;;;;;;;;4878362;29;20234;-73
2021/08/01 14:49:11;;;;;;;4.70;4.30;;;;;;;;;;4878758;29;20303;-74
2021/08/01 14:55:00;;;;;;;5.47;5.03;;;;;;;;;;4878510;29;20480;-74
2021/08/01 14:57:46;;;;;;;5.10;4.70;;;;;;;;;;4878161;29;20215;-74
2021/08/01 15:00:34;;;;;;;5.23;4.80;;;;;;;;;;4878246;29;20228;-75
2021/08/01 15:03:53;;;;;;;5.10;4.73;;;;;;;;;;4876659;29;20494;-75
2021/08/01 15:06:41;;;;;;;5.67;5.27;;;;;;;;;;4859322;29;20231;-75
2021/08/01 15:09:28;;;;;;;5.57;5.17;;;;;;;;;;4870404;29;20356;-75
2021/08/01 15:12:15;;;;;;;5.20;4.90;;;;;;;;;;4878061;29;20237;-76
2021/08/01 15:15:02;;;;;;;6.00;5.60;;;;;;;;;;4877923;29;20234;-75
2021/08/01 15:17:48;;;;;;;4.97;4.63;;;;;;;;;;4877592;29;20213;-75
2021/08/01 15:20:35;;;;;;;5.00;4.70;;;;;;;;;;4878309;29;20366;-76
2021/08/01 15:23:26;;;;;;;5.57;5.17;;;;;;;;;;4877989;29;20212;-75
2021/08/01 15:26:12;;;;;;;6.10;5.60;;;;;;;;;;4868667;29;20238;-74
2021/08/01 15:28:59;;;;;;;6.03;5.60;;;;;;;;;;4868925;29;20219;-75
2021/08/01 15:31:45;;;;;;;6.30;5.90;;;;;;;;;;4865104;29;20207;-75
2021/08/01 15:34:30;;;;;;;6.10;5.60;;;;;;;;;;4868479;29;20218;-75
2021/08/01 15:37:16;;;;;;;5.23;4.90;;;;;;;;;;4868342;29;20216;-75
2021/08/01 15:40:04;;;;;;;5.87;5.37;;;;;;;;;;4870014;29;20221;-75
2021/08/01 15:42:50;;;;;;;5.10;4.80;;;;;;;;;;4872829;29;20214;-76
2021/08/01 15:45:35;;;;;;;5.10;4.80;;;;;;;;;;4889568;29;20248;-75
2021/08/01 15:48:20;;;;;;;4.23;3.93;;;;;;;;;;4871897;29;20222;-76
2021/08/01 15:51:07;;;;;;;5.50;5.10;;;;;;;;;;4887494;29;20216;-76
2021/08/01 15:53:54;;;;;;;6.32;5.82;;;;;;;;;;4891710;29;20452;-75
2021/08/01 15:56:45;;;;;;;5.77;5.47;;;;;;;;;;4893794;29;20239;-75
2021/08/01 15:59:34;;;;;;;6.10;5.60;;;;;;;;;;4888816;29;20219;-76
2021/08/01 16:02:34;;;;;;;5.00;4.60;;;;;;;;;;4876156;29;20260;-76
2021/08/01 16:05:24;;;;;;;5.13;4.80;;;;;;;;;;4868525;29;20364;-76
2021/08/01 16:08:15;;;;;;;5.80;5.40;;;;;;;;;;4869696;29;20212;-77
2021/08/01 16:11:02;;;;;;;6.53;6.07;;;;;;;;;;4865585;29;20724;-76
2021/08/01 16:13:49;;;;;;;6.20;5.80;;;;;;;;;;4868566;29;20212;-76
2021/08/01 16:16:37;;;;;;;6.63;6.17;;;;;;;;;;4865830;29;20254;-77
2021/08/01 16:19:24;;;;;;;6.03;5.53;;;;;;;;;;4863024;29;20592;-76
2021/08/01 16:22:09;;;;;;;5.73;5.33;;;;;;;;;;4868074;29;20239;-76
2021/08/01 16:24:55;;;;;;;5.57;5.07;;;;;;;;;;4868253;29;20212;-76
2021/08/01 16:27:41;;;;;;;6.50;6.10;;;;;;;;;;4866249;29;20211;-77
2021/08/01 16:30:28;;;;;;;5.70;5.30;;;;;;;;;;4868429;29;20391;-76
2021/08/01 16:33:14;;;;;;;3.77;3.43;;;;;;;;;;4867519;29;20223;-76
2021/08/01 16:36:02;;;;;;;2.60;2.40;;;;;;;;;;4868926;29;20349;-76
2021/08/01 16:38:46;;;;;;;2.70;2.50;;;;;;;;;;4874762;29;20215;-75
2021/08/01 16:41:36;;;;;;;3.30;2.50;;;;;;;;;;4893311;29;20331;-76
2021/08/01 16:44:31;;;;;;;2.97;2.67;;;;;;;;;;4892333;29;20617;-75
2021/08/01 16:47:23;;;;;;;2.80;2.60;;;;;;;;;;4892031;29;20211;-76
2021/08/01 16:50:10;;;;;;;3.33;2.80;;;;;;;;;;4892293;29;20208;-76
2021/08/01 16:52:59;;;;;;;3.30;2.50;;;;;;;;;;4893424;29;20694;-75
2021/08/01 16:55:50;;;;;;;3.08;2.75;;;;;;;;;;4890804;29;20454;-75
2021/08/01 16:58:36;;;;;;;3.40;2.63;;;;;;;;;;4892031;29;20218;-75
2021/08/01 17:01:33;;;;;;;2.50;2.30;;;;;;;;;;4893033;29;20250;-76
2021/08/01 17:04:24;;;;;;;3.13;2.50;;;;;;;;;;4885707;29;20624;-76
2021/08/01 17:07:13;;;;;;;2.83;2.53;;;;;;;;;;4893095;29;20246;-77
2021/08/01 17:09:58;;;;;;;3.07;2.87;;;;;;;;;;4892915;29;20868;-76
2021/08/01 17:12:44;;;;;;;4.27;2.90;;;;;;;;;;4890970;29;20215;-75
2021/08/01 17:15:29;;;;;;;3.10;2.50;;;;;;;;;;4905556;23;20229;-72
2021/08/01 17:18:15;;;;;;;3.37;2.33;;;;;;;;;;4886960;29;20208;-73
2021/08/01 17:21:02;;;;;;;3.17;2.50;;;;;;;;;;4892857;29;20246;-73
2021/08/01 17:23:47;;;;;;;2.87;2.27;;;;;;;;;;4893752;29;20226;-74
2021/08/01 17:26:34;;;;;;;5.10;2.90;;;;;;;;;;4875868;29;20235;-73
2021/08/01 17:29:19;;;;;;;5.10;2.90;;;;;;;;;;4878611;29;20278;-73
2021/08/01 17:32:05;;;;;;;3.17;2.50;;;;;;;;;;4876488;29;20624;-72
2021/08/01 17:34:51;;;;;;;3.93;2.70;;;;;;;;;;4870073;29;20931;-72
2021/08/01 17:37:42;;;;;;;5.63;2.77;;;;;;;;;;4879278;29;20215;-73
2021/08/01 17:40:28;;;;;;;3.67;2.40;;;;;;;;;;4861348;29;20217;-72
2021/08/01 17:43:13;;;;;;;2.67;2.30;;;;;;;;;;4861119;29;20216;-73
2021/08/01 17:46:00;;;;;;;2.53;2.33;;;;;;;;;;4860270;29;20232;-74
2021/08/01 17:48:45;;;;;;;3.13;2.20;;;;;;;;;;4861306;29;20788;-74
2021/08/01 17:51:31;;;;;;;3.27;2.60;;;;;;;;;;4873305;29;20578;-73
2021/08/01 17:54:18;;;;;;;2.33;2.17;;;;;;;;;;4879766;29;20267;-74
2021/08/01 17:57:06;;;;;;;2.53;2.22;;;;;;;;;;4878218;29;20534;-73
2021/08/01 17:59:52;;;;;;;3.10;2.20;;;;;;;;;;4879210;29;20794;-73
2021/08/01 18:02:37;;;;;;;3.50;2.40;;;;;;;;;;4879186;29;20242;-74
2021/08/01 18:05:23;;;;;;;5.13;2.33;;;;;;;;;;4879345;29;20309;-73
2021/08/01 18:08:11;;;;;;;4.43;2.10;;;;;;;;;;4878693;29;20223;-72
2021/08/01 18:11:02;;;;;;;2.20;2.10;;;;;;;;;;4879487;29;20212;-73
2021/08/01 18:13:49;;;;;;;2.47;2.20;;;;;;;;;;4878898;29;20216;-73
2021/08/01 18:16:35;;;;;;;2.13;1.93;;;;;;;;;;4870841;29;20293;-73
2021/08/01 18:19:22;;;;;;;2.93;2.00;;;;;;;;;;4860826;29;20204;-73
2021/08/01 18:22:10;;;;;;;5.03;2.27;;;;;;;;;;4872500;29;20229;-72
2021/08/01 18:24:56;;;;;;;3.57;2.10;;;;;;;;;;4874485;29;20595;-72
2021/08/01 18:27:42;;;;;;;3.27;1.90;;;;;;;;;;4875089;29;20220;-73
2021/08/01 18:30:27;;;;;;;3.57;2.37;;;;;;;;;;4874944;29;20334;-73
2021/08/01 18:33:13;;;;;;;2.67;2.30;;;;;;;;;;4875540;29;20700;-72
2021/08/01 18:35:58;;;;;;;3.73;2.10;;;;;;;;;;4873786;29;20319;-72
2021/08/01 18:38:44;;;;;;;4.33;2.37;;;;;;;;;;4873484;29;20325;-73
2021/08/01 18:41:30;;;;;;;4.50;2.17;;;;;;;;;;4875154;29;20239;-73
2021/08/01 18:44:16;;;;;;;3.50;2.20;;;;;;;;;;4873964;29;20704;-72
2021/08/01 18:47:02;;;;;;;4.53;2.20;;;;;;;;;;4872672;29;20232;-72
2021/08/01 18:49:48;;;;;;;3.60;2.13;;;;;;;;;;4874061;29;20216;-72
2021/08/01 18:52:34;;;;;;;3.87;2.20;;;;;;;;;;4874723;29;20223;-72
2021/08/01 18:55:24;;;;;;;3.10;2.20;;;;;;;;;;4873499;29;20689;-72
2021/08/01 18:58:09;;;;;;;3.20;2.10;;;;;;;;;;4873144;29;20450;-72
2021/08/01 19:00:56;;;;;;;4.17;2.13;;;;;;;;;;4871542;29;20211;-72
2021/08/01 19:03:41;;;;;;;3.73;2.30;;;;;;;;;;4873478;29;20208;-73
2021/08/01 19:06:26;;;;;;;4.03;2.27;;;;;;;;;;4874035;29;20235;-69
2021/08/01 19:09:11;;;;;;;2.93;2.30;;;;;;;;;;4873978;29;20211;-69
2021/08/01 19:11:56;;;;;;;3.60;2.47;;;;;;;;;;4874105;29;20218;-69
2021/08/01 19:14:41;;;;;;;4.13;2.30;;;;;;;;;;4874241;29;20220;-69
2021/08/01 19:17:36;;;;;;;4.90;2.37;;;;;;;;;;4874778;29;20250;-68
2021/08/01 19:20:24;;;;;;;4.27;2.50;;;;;;;;;;4869313;29;20288;-72
2021/08/01 19:23:15;;;;;;;4.17;2.57;;;;;;;;;;4874270;29;20239;-71
2021/08/01 19:26:01;;;;;;;2.50;2.30;;;;;;;;;;4871813;29;20235;-69
2021/08/01 19:28:52;;;;;;;3.23;1.83;;;;;;;;;;4873324;29;20724;-71
2021/08/01 19:31:38;;;;;;;4.13;2.33;;;;;;;;;;4868456;29;20203;-71
2021/08/01 19:34:28;;;;;;;4.80;2.27;;;;;;;;;;4877388;29;20241;-71
2021/08/01 19:37:13;;;;;;;3.10;2.20;;;;;;;;;;4880346;29;20825;-72
2021/08/01 19:39:59;;;;;;;4.23;2.40;;;;;;;;;;4875973;29;20267;-71
2021/08/01 19:42:44;;;;;;;5.00;2.70;;;;;;;;;;4876574;29;20779;-72
2021/08/01 19:45:29;;;;;;;3.83;2.17;;;;;;;;;;4875276;29;20263;-71
2021/08/01 19:48:18;;;;;;;2.63;2.27;;;;;;;;;;4875815;29;20227;-72
2021/08/01 19:51:04;;;;;;;6.23;2.70;;;;;;;;;;4875337;29;20215;-71
2021/08/01 19:53:49;;;;;;;2.53;2.33;;;;;;;;;;4876260;29;20256;-72
2021/08/01 19:56:36;;;;;;;5.57;2.30;;;;;;;;;;4875057;29;20251;-72
2021/08/01 19:59:20;;;;;;;4.83;2.80;;;;;;;;;;4874467;29;20223;-72
2021/08/01 21:15:00;;;;;;;6.07;2.90;;;;;;;;;;5352557;23;20331;-76
2021/08/01 21:17:45;;;;;;;4.93;2.40;;;;;;;;;;4870146;29;20215;-76
2021/08/01 21:20:31;;;;;;;5.60;2.77;;;;;;;;;;4868109;29;20321;-76
2021/08/01 21:23:16;;;;;;;3.50;2.50;;;;;;;;;;4869283;29;20226;-77
2021/08/01 21:26:01;;;;;;;4.87;2.93;;;;;;;;;;4870739;29;20287;-76
2021/08/01 21:28:45;;;;;;;6.20;2.90;;;;;;;;;;4866991;29;20289;-76
2021/08/01 21:31:32;;;;;;;7.23;3.17;;;;;;;;;;4869247;29;20272;-76
2021/08/01 21:34:17;;;;;;;5.60;2.80;;;;;;;;;;4898041;23;20246;-76
2021/08/01 21:37:02;;;;;;;5.73;3.27;;;;;;;;;;4884207;29;20350;-76
2021/08/01 21:39:47;;;;;;;5.07;2.93;;;;;;;;;;4887739;29;20221;-73
2021/08/01 21:47:57;;;;;;;7.27;3.20;;;;;;;;;;4944869;23;20248;-76
2021/08/01 21:50:43;;;;;;;3.90;3.13;;;;;;;;;;4889142;29;20303;-76
2021/08/01 21:53:28;;;;;;;4.07;3.10;;;;;;;;;;4887830;29;20214;-77
2021/08/01 21:56:13;;;;;;;5.03;3.20;;;;;;;;;;4886442;29;20231;-73
2021/08/01 21:58:59;;;;;;;6.73;3.23;;;;;;;;;;4873157;29;20223;-73
2021/08/01 22:01:48;;;;;;;5.97;3.50;;;;;;;;;;4874106;29;20219;-73
2021/08/01 22:04:36;;;;;;;6.05;3.58;;;;;;;;;;4872234;29;20400;-72
2021/08/01 22:07:21;;;;;;;6.23;3.50;;;;;;;;;;4873607;29;20238;-74
2021/08/01 22:10:07;;;;;;;5.73;3.30;;;;;;;;;;4907732;23;20382;-77
2021/08/01 22:12:52;;;;;;;6.73;3.60;;;;;;;;;;4900040;29;20211;-77
2021/08/01 22:15:37;;;;;;;4.93;3.80;;;;;;;;;;4891666;29;20219;-77
2021/08/01 22:18:22;;;;;;;5.67;3.60;;;;;;;;;;4892723;29;20229;-77
2021/08/01 22:21:09;;;;;;;6.77;4.23;;;;;;;;;;4879541;29;20222;-77
2021/08/01 22:23:54;;;;;;;5.77;3.43;;;;;;;;;;4879391;29;20242;-76
2021/08/01 22:26:40;;;;;;;6.07;3.40;;;;;;;;;;4880310;29;20223;-77
2021/08/01 22:29:26;;;;;;;5.73;3.47;;;;;;;;;;4873704;29;21669;-77
2021/08/01 22:32:12;;;;;;;4.67;3.80;;;;;;;;;;4880205;29;20684;-77
2021/08/01 22:34:59;;;;;;;8.23;4.00;;;;;;;;;;4882216;29;20219;-79
2021/08/01 22:37:48;;;;;;;10.03;4.30;;;;;;;;;;4883814;29;20382;-78
2021/08/01 22:40:35;;;;;;;5.63;3.90;;;;;;;;;;4882618;29;20238;-78
2021/08/01 22:43:20;;;;;;;5.73;3.90;;;;;;;;;;4883080;29;20243;-77
2021/08/01 22:46:05;;;;;;;6.87;3.77;;;;;;;;;;4879279;29;20215;-76
2021/08/01 22:48:50;;;;;;;5.17;3.63;;;;;;;;;;4880769;29;20235;-80
2021/08/01 22:51:35;;;;;;;7.43;3.90;;;;;;;;;;4884634;29;20295;-77